createdAt,value
2018-09-09T00:01:10.319Z,13.49
2018-09-09T00:03:39.299Z,13.62
2018-09-09T00:06:08.302Z,13.61
2018-09-09T00:08:37.305Z,13.70
2018-09-09T00:11:06.294Z,13.74
2018-09-09T00:13:35.563Z,13.84
2018-09-09T00:16:04.557Z,14.29
2018-09-09T00:18:33.573Z,14.59
2018-09-09T00:21:02.554Z,14.69
2018-09-09T00:23:31.608Z,14.69
2018-09-09T00:26:00.690Z,14.68
2018-09-09T00:28:29.711Z,14.66
2018-09-09T00:30:58.784Z,14.60
2018-09-09T00:33:27.795Z,14.46
2018-09-09T00:35:56.811Z,14.11
2018-09-09T00:38:25.839Z,13.98
2018-09-09T00:40:54.854Z,13.77
2018-09-09T00:43:23.943Z,13.75
2018-09-09T00:45:53.154Z,13.57
2018-09-09T00:48:22.167Z,13.50
2018-09-09T00:51:55.219Z,13.42
2018-09-09T00:54:24.235Z,13.26
2018-09-09T00:56:53.294Z,13.18
2018-09-09T00:59:22.310Z,13.19
2018-09-09T01:01:51.343Z,13.11
2018-09-09T01:04:20.358Z,13.02
2018-09-09T01:06:49.372Z,13.10
2018-09-09T01:09:18.411Z,13.28
2018-09-09T01:11:47.418Z,13.25
2018-09-09T01:14:16.742Z,13.09
2018-09-09T01:16:45.833Z,12.98
2018-09-09T01:19:14.855Z,12.89
2018-09-09T01:21:43.879Z,12.81
2018-09-09T01:24:12.891Z,12.83
2018-09-09T01:26:41.922Z,12.79
2018-09-09T01:29:10.931Z,12.82
2018-09-09T01:31:40.298Z,12.84
2018-09-09T01:34:09.403Z,12.88
2018-09-09T01:36:38.403Z,12.93
2018-09-09T01:39:08.476Z,12.92
2018-09-09T01:41:37.687Z,12.86
2018-09-09T01:44:06.797Z,12.78
2018-09-09T01:46:35.797Z,12.65
2018-09-09T01:49:04.796Z,12.60
2018-09-09T01:51:33.838Z,12.49
2018-09-09T01:54:03.783Z,12.49
2018-09-09T01:56:32.883Z,12.45
2018-09-09T01:59:01.888Z,12.38
2018-09-09T02:01:30.891Z,12.24
2018-09-09T02:03:59.931Z,12.21
2018-09-09T02:06:28.942Z,12.16
2018-09-09T02:08:57.970Z,12.07
2018-09-09T02:11:26.975Z,12.04
2018-09-09T02:13:56.014Z,12.00
2018-09-09T02:16:25.067Z,12.00
2018-09-09T02:18:54.075Z,12.04
2018-09-09T02:21:23.106Z,12.01
2018-09-09T02:23:52.105Z,12.00
2018-09-09T02:26:21.155Z,12.03
2018-09-09T02:28:50.172Z,12.01
2018-09-09T02:31:19.214Z,12.08
2018-09-09T02:33:48.244Z,12.15
2018-09-09T02:36:17.270Z,12.15
2018-09-09T02:38:46.370Z,12.20
2018-09-09T02:41:15.379Z,12.17
2018-09-09T02:43:44.589Z,12.08
2018-09-09T02:46:13.507Z,12.00
2018-09-09T02:48:42.516Z,11.89
2018-09-09T02:51:11.595Z,11.88
2018-09-09T02:53:40.710Z,11.83
2018-09-09T02:56:09.712Z,11.85
2018-09-09T02:58:38.739Z,11.85
2018-09-09T03:01:08.035Z,11.82
2018-09-09T03:03:37.380Z,11.85
2018-09-09T03:06:06.498Z,11.85
2018-09-09T03:08:35.514Z,11.87
2018-09-09T03:11:09.871Z,11.83
2018-09-09T03:13:39.075Z,11.71
2018-09-09T03:16:08.150Z,11.63
2018-09-09T03:18:37.166Z,11.54
2018-09-09T03:21:06.230Z,11.53
2018-09-09T03:23:35.463Z,11.46
2018-09-09T03:26:04.468Z,11.46
2018-09-09T03:28:33.858Z,11.41
2018-09-09T03:31:02.774Z,11.44
2018-09-09T03:33:31.771Z,11.40
2018-09-09T03:36:00.799Z,11.40
2018-09-09T03:38:29.799Z,11.36
2018-09-09T03:40:58.838Z,11.34
2018-09-09T03:43:27.906Z,11.27
2018-09-09T03:45:56.923Z,11.30
2018-09-09T03:48:26.042Z,11.34
2018-09-09T03:50:55.048Z,11.36
2018-09-09T03:53:24.067Z,11.39
2018-09-09T03:55:53.071Z,11.35
2018-09-09T03:58:22.465Z,11.41
2018-09-09T04:00:51.496Z,11.39
2018-09-09T04:03:20.515Z,11.35
2018-09-09T04:05:49.537Z,11.29
2018-09-09T04:08:18.539Z,11.29
2018-09-09T04:10:47.575Z,11.25
2018-09-09T04:13:16.582Z,11.30
2018-09-09T04:15:45.611Z,11.39
2018-09-09T04:18:14.639Z,11.41
2018-09-09T04:20:43.660Z,11.32
2018-09-09T04:23:12.731Z,11.26
2018-09-09T04:25:41.950Z,11.20
2018-09-09T04:28:10.987Z,11.12
2018-09-09T04:30:40.104Z,11.10
2018-09-09T04:33:09.111Z,11.06
2018-09-09T04:35:38.135Z,11.06
2018-09-09T04:38:07.287Z,11.16
2018-09-09T04:40:36.400Z,11.16
2018-09-09T04:43:05.403Z,11.18
2018-09-09T04:45:34.431Z,11.18
2018-09-09T04:48:03.431Z,11.19
2018-09-09T04:50:32.510Z,11.20
2018-09-09T04:53:01.604Z,11.16
2018-09-09T04:55:30.660Z,11.06
2018-09-09T04:57:59.683Z,11.10
2018-09-09T05:00:28.739Z,11.11
2018-09-09T05:02:57.784Z,11.13
2018-09-09T05:05:26.835Z,11.17
2018-09-09T05:07:55.860Z,11.20
2018-09-09T05:10:24.884Z,11.26
2018-09-09T05:12:53.967Z,11.25
2018-09-09T05:15:23.056Z,11.32
2018-09-09T05:17:52.091Z,11.44
2018-09-09T05:20:21.091Z,11.49
2018-09-09T05:22:50.203Z,11.54
2018-09-09T05:25:19.199Z,11.61
2018-09-09T05:27:48.228Z,11.73
2018-09-09T05:30:17.239Z,11.76
2018-09-09T05:32:46.287Z,11.81
2018-09-09T05:35:15.308Z,11.94
2018-09-09T05:37:44.351Z,12.05
2018-09-09T05:40:13.378Z,12.12
2018-09-09T05:42:42.375Z,12.27
2018-09-09T05:45:11.428Z,12.32
2018-09-09T05:47:40.417Z,12.44
2018-09-09T05:50:09.431Z,12.54
2018-09-09T05:52:38.456Z,12.70
2018-09-09T05:55:07.487Z,12.79
2018-09-09T05:57:36.618Z,12.82
2018-09-09T06:00:05.616Z,12.90
2018-09-09T06:02:34.695Z,12.91
2018-09-09T06:05:03.727Z,12.92
2018-09-09T06:07:32.739Z,12.88
2018-09-09T06:10:01.787Z,12.84
2018-09-09T06:12:30.795Z,12.75
2018-09-09T06:14:59.851Z,12.68
2018-09-09T06:17:28.899Z,12.60
2018-09-09T06:19:57.909Z,12.55
2018-09-09T06:22:27.343Z,12.51
2018-09-09T06:24:56.827Z,12.55
2018-09-09T06:27:26.119Z,12.62
2018-09-09T06:29:55.188Z,12.75
2018-09-09T06:32:24.375Z,12.95
2018-09-09T06:34:53.392Z,13.18
2018-09-09T06:37:22.479Z,13.50
2018-09-09T06:39:51.521Z,13.54
2018-09-09T06:42:20.538Z,13.75
2018-09-09T06:44:49.548Z,13.91
2018-09-09T06:47:18.578Z,14.13
2018-09-09T06:49:47.597Z,14.28
2018-09-09T06:52:16.931Z,14.45
2018-09-09T06:54:46.012Z,14.52
2018-09-09T06:57:18.062Z,14.70
2018-09-09T06:59:47.202Z,14.81
2018-09-09T07:02:16.272Z,14.95
2018-09-09T07:04:45.266Z,15.01
2018-09-09T07:07:14.293Z,15.03
2018-09-09T07:09:43.372Z,15.02
2018-09-09T07:12:12.378Z,14.97
2018-09-09T07:14:41.446Z,15.02
2018-09-09T07:17:10.788Z,15.11
2018-09-09T07:19:39.723Z,15.24
2018-09-09T07:22:08.894Z,15.34
2018-09-09T07:24:37.935Z,15.30
2018-09-09T07:27:07.171Z,15.38
2018-09-09T07:29:36.486Z,15.52
2018-09-09T07:32:05.479Z,15.62
2018-09-09T07:34:34.492Z,15.82
2018-09-09T07:37:03.553Z,15.87
2018-09-09T07:39:32.563Z,16.06
2018-09-09T07:42:01.851Z,16.21
2018-09-09T07:44:30.856Z,16.39
2018-09-09T07:46:59.864Z,16.54
2018-09-09T07:49:28.889Z,16.69
2018-09-09T07:51:57.924Z,16.96
2018-09-09T07:54:26.898Z,17.18
2018-09-09T07:56:55.918Z,17.19
2018-09-09T07:59:25.020Z,17.12
2018-09-09T08:01:54.033Z,17.24
2018-09-09T08:04:23.157Z,17.35
2018-09-09T08:06:52.425Z,17.51
2018-09-09T08:09:21.627Z,17.57
2018-09-09T08:11:50.634Z,17.44
2018-09-09T08:14:19.684Z,17.35
2018-09-09T08:16:48.740Z,17.24
2018-09-09T08:19:17.890Z,17.10
2018-09-09T08:21:46.987Z,16.97
2018-09-09T08:24:16.021Z,17.11
2018-09-09T08:26:45.045Z,17.17
2018-09-09T08:29:14.075Z,17.52
2018-09-09T08:31:43.103Z,17.69
2018-09-09T08:34:12.139Z,17.95
2018-09-09T08:36:41.150Z,18.23
2018-09-09T08:39:11.498Z,18.51
2018-09-09T08:41:40.820Z,18.73
2018-09-09T08:44:10.691Z,18.72
2018-09-09T08:46:39.887Z,18.46
2018-09-09T08:49:08.919Z,18.41
2018-09-09T08:51:37.939Z,18.54
2018-09-09T08:54:07.048Z,18.35
2018-09-09T08:56:36.058Z,18.50
2018-09-09T08:59:05.224Z,18.73
2018-09-09T09:01:34.252Z,18.98
2018-09-09T09:04:03.371Z,19.24
2018-09-09T09:06:32.379Z,19.13
2018-09-09T09:09:01.379Z,19.38
2018-09-09T09:11:30.399Z,19.49
2018-09-09T09:13:59.506Z,19.67
2018-09-09T09:16:28.623Z,19.62
2018-09-09T09:18:57.844Z,20.01
2018-09-09T09:21:26.923Z,19.99
2018-09-09T09:23:55.938Z,20.05
2018-09-09T09:26:24.946Z,20.06
2018-09-09T09:28:54.068Z,20.30
2018-09-09T09:31:23.079Z,20.39
2018-09-09T09:33:52.115Z,20.47
2018-09-09T09:36:21.123Z,20.54
2018-09-09T09:38:50.159Z,20.69
2018-09-09T09:41:19.184Z,20.51
2018-09-09T09:43:48.388Z,20.75
2018-09-09T09:46:17.412Z,20.70
2018-09-09T09:48:46.540Z,20.56
2018-09-09T09:51:15.563Z,20.55
2018-09-09T09:53:44.574Z,20.57
2018-09-09T09:56:13.606Z,20.48
2018-09-09T09:58:42.667Z,20.27
2018-09-09T10:01:11.671Z,20.45
2018-09-09T10:03:40.756Z,20.57
2018-09-09T10:06:09.703Z,20.79
2018-09-09T10:08:38.707Z,21.10
2018-09-09T10:11:07.818Z,21.25
2018-09-09T10:13:36.855Z,21.40
2018-09-09T10:16:05.862Z,21.74
2018-09-09T10:18:34.880Z,21.67
2018-09-09T10:21:03.944Z,21.63
2018-09-09T10:23:32.967Z,21.77
2018-09-09T10:26:01.986Z,21.74
2018-09-09T10:28:31.003Z,21.64
2018-09-09T10:31:06.777Z,21.67
2018-09-09T10:33:35.807Z,21.83
2018-09-09T10:36:04.839Z,22.10
2018-09-09T10:38:33.840Z,22.49
2018-09-09T10:41:02.877Z,22.44
2018-09-09T10:43:31.915Z,22.34
2018-09-09T10:46:00.957Z,22.47
2018-09-09T10:48:30.188Z,22.49
2018-09-09T10:50:59.208Z,22.62
2018-09-09T10:53:28.225Z,22.78
2018-09-09T10:55:57.259Z,22.96
2018-09-09T10:58:26.265Z,22.91
2018-09-09T11:00:55.286Z,22.77
2018-09-09T11:03:24.300Z,22.66
2018-09-09T11:05:53.333Z,22.50
2018-09-09T11:08:22.332Z,22.42
2018-09-09T11:10:51.347Z,22.44
2018-09-09T11:13:20.352Z,22.43
2018-09-09T11:15:49.479Z,22.53
2018-09-09T11:18:18.495Z,22.72
2018-09-09T11:20:47.526Z,22.63
2018-09-09T11:23:16.650Z,22.83
2018-09-09T11:25:45.739Z,22.95
2018-09-09T11:28:14.747Z,23.20
2018-09-09T11:30:44.108Z,23.07
2018-09-09T11:33:13.323Z,23.11
2018-09-09T11:35:42.336Z,23.21
2018-09-09T11:38:11.363Z,23.06
2018-09-09T11:40:40.431Z,23.22
2018-09-09T11:43:10.898Z,23.28
2018-09-09T11:45:39.947Z,23.17
2018-09-09T11:48:15.291Z,23.37
2018-09-09T11:50:44.310Z,23.41
2018-09-09T11:53:13.476Z,23.40
2018-09-09T11:55:42.419Z,23.34
2018-09-09T11:58:11.472Z,23.26
2018-09-09T12:00:40.487Z,23.36
2018-09-09T12:03:10.548Z,23.60
2018-09-09T12:05:39.560Z,23.34
2018-09-09T12:08:08.603Z,23.36
2018-09-09T12:10:37.614Z,23.64
2018-09-09T12:13:07.847Z,23.70
2018-09-09T12:15:36.864Z,23.94
2018-09-09T12:18:05.886Z,23.94
2018-09-09T12:20:34.902Z,23.82
2018-09-09T12:23:06.991Z,23.82
2018-09-09T12:25:36.008Z,23.89
2018-09-09T12:28:05.081Z,23.86
2018-09-09T12:30:34.092Z,24.28
2018-09-09T12:33:04.646Z,24.66
2018-09-09T12:35:33.660Z,24.92
2018-09-09T12:38:02.683Z,24.72
2018-09-09T12:40:31.716Z,24.69
2018-09-09T12:43:07.155Z,24.86
2018-09-09T12:45:41.483Z,24.78
2018-09-09T12:48:16.020Z,24.78
2018-09-09T12:50:45.040Z,24.82
2018-09-09T12:53:15.499Z,25.11
2018-09-09T12:55:44.511Z,25.34
2018-09-09T12:58:13.668Z,25.53
2018-09-09T13:00:42.672Z,25.67
2018-09-09T13:03:13.095Z,25.18
2018-09-09T13:05:42.193Z,25.07
2018-09-09T13:08:11.227Z,24.62
2018-09-09T13:10:40.269Z,24.54
2018-09-09T13:13:16.687Z,24.70
2018-09-09T13:15:45.937Z,24.89
2018-09-09T13:18:15.143Z,24.93
2018-09-09T13:20:44.615Z,25.14
2018-09-09T13:23:15.352Z,25.21
2018-09-09T13:25:44.351Z,25.14
2018-09-09T13:28:13.401Z,24.85
2018-09-09T13:30:42.530Z,24.88
2018-09-09T13:33:11.549Z,25.03
2018-09-09T13:35:40.560Z,25.04
2018-09-09T13:38:09.568Z,24.90
2018-09-09T13:40:38.583Z,24.86
2018-09-09T13:43:09.234Z,24.96
2018-09-09T13:45:38.347Z,25.12
2018-09-09T13:48:07.455Z,25.05
2018-09-09T13:50:36.415Z,25.18
2018-09-09T13:53:05.767Z,25.02
2018-09-09T13:55:34.780Z,25.13
2018-09-09T13:58:03.799Z,25.25
2018-09-09T14:00:32.828Z,25.49
2018-09-09T14:03:01.890Z,25.65
2018-09-09T14:05:31.140Z,25.67
2018-09-09T14:08:00.163Z,25.47
2018-09-09T14:10:29.200Z,25.68
2018-09-09T14:12:58.514Z,25.88
2018-09-09T14:15:27.716Z,26.03
2018-09-09T14:17:56.771Z,26.49
2018-09-09T14:20:25.807Z,26.05
2018-09-09T14:22:54.907Z,26.20
2018-09-09T14:25:23.919Z,26.03
2018-09-09T14:27:53.132Z,26.21
2018-09-09T14:30:22.183Z,26.25
2018-09-09T14:32:57.543Z,26.28
2018-09-09T14:35:26.563Z,26.41
2018-09-09T14:37:55.615Z,25.88
2018-09-09T14:40:24.667Z,25.83
2018-09-09T14:43:00.224Z,25.95
2018-09-09T14:45:29.628Z,26.03
2018-09-09T14:47:58.640Z,26.17
2018-09-09T14:50:27.747Z,26.09
2018-09-09T14:52:56.844Z,26.28
2018-09-09T14:55:25.885Z,26.10
2018-09-09T14:57:54.951Z,25.90
2018-09-09T15:00:24.030Z,25.88
2018-09-09T15:02:52.954Z,26.14
2018-09-09T15:05:21.975Z,26.13
2018-09-09T15:07:51.016Z,26.15
2018-09-09T15:10:20.047Z,26.06
2018-09-09T15:12:50.815Z,25.75
2018-09-09T15:15:19.819Z,25.70
2018-09-09T15:17:48.847Z,25.70
2018-09-09T15:20:17.863Z,25.74
2018-09-09T15:22:48.059Z,25.77
2018-09-09T15:25:23.679Z,25.66
2018-09-09T15:27:52.744Z,25.77
2018-09-09T15:30:21.884Z,25.71
2018-09-09T15:32:52.337Z,25.65
2018-09-09T15:35:21.398Z,25.76
2018-09-09T15:37:50.435Z,25.69
2018-09-09T15:40:19.457Z,25.59
2018-09-09T15:42:49.844Z,25.35
2018-09-09T15:45:18.883Z,25.27
2018-09-09T15:47:47.902Z,25.22
2018-09-09T15:50:16.912Z,25.25
2018-09-09T15:52:45.939Z,25.19
2018-09-09T15:55:15.009Z,25.15
2018-09-09T15:57:44.007Z,25.01
2018-09-09T16:00:13.038Z,25.06
2018-09-09T16:02:42.145Z,24.84
2018-09-09T16:05:11.200Z,24.69
2018-09-09T16:07:40.232Z,24.63
2018-09-09T16:10:09.271Z,24.53
2018-09-09T16:12:41.350Z,24.28
2018-09-09T16:15:10.343Z,24.30
2018-09-09T16:17:39.342Z,24.17
2018-09-09T16:20:08.439Z,24.10
2018-09-09T16:22:38.684Z,24.00
2018-09-09T16:25:08.060Z,23.90
2018-09-09T16:27:37.307Z,23.82
2018-09-09T16:30:07.509Z,23.63
2018-09-09T16:32:36.523Z,23.49
2018-09-09T16:35:05.540Z,23.25
2018-09-09T16:37:34.799Z,23.00
2018-09-09T16:40:03.834Z,22.89
2018-09-09T16:42:33.220Z,22.70
2018-09-09T16:45:02.244Z,22.58
2018-09-09T16:47:31.257Z,22.41
2018-09-09T16:50:00.306Z,22.25
2018-09-09T16:52:29.331Z,22.11
2018-09-09T16:54:58.358Z,21.92
2018-09-09T16:57:27.411Z,21.73
2018-09-09T16:59:56.451Z,21.71
2018-09-09T17:02:25.448Z,21.55
2018-09-09T17:04:54.464Z,21.40
2018-09-09T17:07:23.575Z,21.21
2018-09-09T17:09:52.620Z,21.03
2018-09-09T17:12:21.628Z,20.89
2018-09-09T17:14:50.640Z,20.76
2018-09-09T17:17:19.720Z,20.69
2018-09-09T17:19:49.706Z,20.54
2018-09-09T17:22:19.021Z,20.32
2018-09-09T17:24:48.415Z,20.17
2018-09-09T17:27:17.626Z,19.99
2018-09-09T17:29:46.644Z,19.80
2018-09-09T17:32:15.664Z,19.61
2018-09-09T17:34:44.672Z,19.43
2018-09-09T17:37:14.055Z,19.26
2018-09-09T17:39:43.344Z,19.10
2018-09-09T17:42:12.372Z,18.98
2018-09-09T17:44:41.840Z,18.80
2018-09-09T17:47:10.852Z,18.57
2018-09-09T17:49:39.915Z,18.42
2018-09-09T17:52:08.940Z,18.24
2018-09-09T17:54:37.992Z,18.14
2018-09-09T17:57:07.015Z,18.09
2018-09-09T17:59:36.072Z,18.01
2018-09-09T18:02:05.079Z,17.78
2018-09-09T18:04:34.131Z,17.65
2018-09-09T18:07:03.160Z,17.47
2018-09-09T18:09:32.215Z,17.37
2018-09-09T18:12:01.339Z,17.26
2018-09-09T18:14:30.367Z,17.15
2018-09-09T18:16:59.403Z,17.11
2018-09-09T18:19:28.695Z,17.19
2018-09-09T18:21:57.723Z,17.05
2018-09-09T18:24:26.792Z,16.99
2018-09-09T18:26:55.803Z,16.78
2018-09-09T18:29:24.849Z,16.63
2018-09-09T18:31:54.074Z,16.65
2018-09-09T18:34:23.114Z,16.64
2018-09-09T18:36:52.179Z,16.58
2018-09-09T18:39:21.192Z,16.56
2018-09-09T18:41:50.263Z,16.58
2018-09-09T18:44:19.319Z,16.63
2018-09-09T18:46:48.332Z,16.67
2018-09-09T18:49:17.505Z,16.62
2018-09-09T18:51:46.595Z,16.61
2018-09-09T18:54:15.620Z,16.63
2018-09-09T18:56:44.638Z,16.61
2018-09-09T18:59:13.658Z,16.69
2018-09-09T19:01:42.691Z,16.81
2018-09-09T19:04:11.731Z,16.96
2018-09-09T19:06:40.752Z,17.03
2018-09-09T19:09:09.763Z,16.99
2018-09-09T19:11:38.783Z,16.94
2018-09-09T19:14:07.882Z,16.81
2018-09-09T19:16:36.824Z,16.74
2018-09-09T19:19:05.843Z,16.67
2018-09-09T19:21:34.967Z,16.63
2018-09-09T19:24:03.979Z,16.54
2018-09-09T19:26:32.997Z,16.52
2018-09-09T19:29:02.006Z,16.51
2018-09-09T19:31:37.706Z,16.58
2018-09-09T19:34:06.768Z,16.67
2018-09-09T19:36:35.880Z,16.68
2018-09-09T19:39:07.503Z,16.69
2018-09-09T19:41:36.559Z,16.60
2018-09-09T19:44:05.744Z,16.58
2018-09-09T19:46:34.883Z,16.58
2018-09-09T19:49:04.488Z,16.60
2018-09-09T19:51:33.584Z,16.64
2018-09-09T19:54:02.777Z,16.59
2018-09-09T19:56:31.779Z,16.55
2018-09-09T19:59:00.831Z,16.57
2018-09-09T20:01:29.858Z,16.71
2018-09-09T20:03:58.880Z,16.74
2018-09-09T20:06:27.946Z,16.68
2018-09-09T20:08:56.943Z,16.74
2018-09-09T20:11:25.951Z,16.91
2018-09-09T20:13:56.535Z,16.96
2018-09-09T20:16:25.543Z,16.96
2018-09-09T20:18:54.579Z,17.00
2018-09-09T20:21:23.574Z,17.06
2018-09-09T20:23:52.639Z,17.15
2018-09-09T20:26:21.743Z,17.09
2018-09-09T20:28:50.743Z,16.94
2018-09-09T20:31:19.776Z,16.85
2018-09-09T20:33:48.788Z,16.69
2018-09-09T20:36:17.819Z,16.54
2018-09-09T20:38:46.859Z,16.36
2018-09-09T20:41:15.868Z,16.27
2018-09-09T20:43:44.894Z,16.17
2018-09-09T20:46:13.937Z,16.09
2018-09-09T20:48:42.979Z,15.98
2018-09-09T20:51:11.979Z,15.87
2018-09-09T20:53:41.031Z,15.73
2018-09-09T20:56:10.032Z,15.64
2018-09-09T20:58:39.047Z,15.59
2018-09-09T21:01:08.049Z,15.44
2018-09-09T21:03:37.129Z,15.38
2018-09-09T21:06:06.176Z,15.38
2018-09-09T21:08:35.215Z,15.28
2018-09-09T21:11:04.243Z,15.29
2018-09-09T21:13:33.279Z,15.31
2018-09-09T21:16:02.299Z,15.60
2018-09-09T21:18:31.319Z,15.52
2018-09-09T21:21:00.355Z,15.40
2018-09-09T21:23:30.735Z,15.40
2018-09-09T21:25:59.811Z,15.42
2018-09-09T21:28:28.823Z,15.47
2018-09-09T21:30:57.921Z,15.45
2018-09-09T21:33:27.015Z,15.43
2018-09-09T21:35:56.024Z,15.66
2018-09-09T21:38:25.059Z,15.87
2018-09-09T21:40:54.135Z,15.89
2018-09-09T21:43:24.788Z,15.84
2018-09-09T21:45:53.806Z,15.79
2018-09-09T21:48:22.842Z,15.67
2018-09-09T21:50:51.861Z,15.51
2018-09-09T21:53:22.054Z,15.31
2018-09-09T21:55:51.223Z,15.23
2018-09-09T21:58:20.263Z,15.11
2018-09-09T22:00:54.606Z,14.98
2018-09-09T22:03:23.639Z,15.15
2018-09-09T22:05:52.699Z,15.40
2018-09-09T22:08:21.784Z,15.46
2018-09-09T22:10:50.799Z,15.52
2018-09-09T22:13:21.651Z,15.47
2018-09-09T22:15:50.835Z,15.42
2018-09-09T22:18:19.847Z,15.43
2018-09-09T22:20:49.118Z,15.33
2018-09-09T22:23:18.129Z,15.13
2018-09-09T22:25:48.873Z,14.82
2018-09-09T22:28:17.878Z,14.69
2018-09-09T22:30:46.902Z,14.60
2018-09-09T22:33:15.919Z,14.48
2018-09-09T22:35:46.548Z,14.47
2018-09-09T22:38:15.599Z,14.38
2018-09-09T22:40:44.719Z,14.22
2018-09-09T22:43:13.787Z,14.22
2018-09-09T22:45:42.823Z,14.11
2018-09-09T22:48:12.359Z,14.15
2018-09-09T22:50:41.382Z,14.09
2018-09-09T22:53:10.400Z,14.06
2018-09-09T22:55:39.427Z,13.97
2018-09-09T22:58:08.457Z,14.00
2018-09-09T23:00:37.526Z,13.88
2018-09-09T23:03:06.928Z,13.80
2018-09-09T23:05:36.074Z,13.71
2018-09-09T23:08:05.021Z,13.70
2018-09-09T23:10:34.040Z,13.75
2018-09-09T23:13:03.107Z,13.68
2018-09-09T23:15:32.182Z,13.66
2018-09-09T23:18:01.179Z,13.65
2018-09-09T23:20:30.209Z,13.65
2018-09-09T23:22:59.215Z,13.55
2018-09-09T23:25:28.655Z,13.47
2018-09-09T23:27:58.422Z,13.42
2018-09-09T23:30:27.457Z,13.45
2018-09-09T23:32:56.467Z,13.45
2018-09-09T23:35:25.483Z,13.50
2018-09-09T23:37:54.503Z,13.51
2018-09-09T23:40:23.519Z,13.64
2018-09-09T23:42:52.539Z,13.66
2018-09-09T23:45:21.551Z,13.66
2018-09-09T23:47:50.567Z,13.70
2018-09-09T23:50:19.601Z,13.66
2018-09-09T23:52:49.731Z,13.58
2018-09-09T23:55:18.744Z,13.66
2018-09-09T23:57:47.755Z,13.75
